Time;durP1;ratioP1;P1;durP2;ratioP2;P2;SDS_P1;SDS_P2;PMS_P1;PMS_P2;Temp;Humidity;BMP_temperature;BMP_pressure;BME280_temperature;BME280_humidity;BME280_pressure;Samples;Min_cycle;Max_cycle;Signal;HPM_P1;HPM_P2
2022/03/19 00:00:22;;;;;;;16.50;7.93;;;3.00;99.90;;;;;;5069949;28;20024;-75
2022/03/19 00:02:48;;;;;;;10.90;6.95;;;3.00;99.90;;;;;;5069669;28;20025;-75
2022/03/19 00:05:13;;;;;;;18.52;9.07;;;3.10;99.90;;;;;;5052267;28;20025;-75
2022/03/19 00:07:42;;;;;;;20.75;8.63;;;3.10;99.90;;;;;;5069383;28;20020;-75
2022/03/19 00:10:09;;;;;;;15.45;7.90;;;3.10;99.90;;;;;;5069903;28;20036;-75
2022/03/19 00:12:39;;;;;;;18.50;7.80;;;3.10;99.90;;;;;;5069626;28;20142;-75
2022/03/19 00:15:05;;;;;;;20.50;9.15;;;3.00;99.90;;;;;;5051792;28;20131;-75
2022/03/19 00:17:31;;;;;;;12.52;7.40;;;3.00;99.90;;;;;;5051272;28;20028;-75
2022/03/19 00:19:57;;;;;;;10.60;7.88;;;3.00;99.90;;;;;;5031989;28;20052;-75
2022/03/19 00:22:22;;;;;;;12.70;7.22;;;2.90;99.90;;;;;;5049640;28;20021;-75
2022/03/19 00:24:48;;;;;;;14.63;7.07;;;2.90;99.90;;;;;;5057407;28;20073;-75
2022/03/19 00:27:14;;;;;;;10.63;6.90;;;2.80;99.90;;;;;;5051612;28;20027;-75
2022/03/19 00:29:39;;;;;;;17.08;7.65;;;2.70;99.90;;;;;;5051643;28;20021;-75
2022/03/19 00:32:05;;;;;;;10.82;7.30;;;2.70;99.90;;;;;;5069166;28;20028;-75
2022/03/19 00:34:32;;;;;;;12.10;7.40;;;2.60;99.90;;;;;;5069429;28;20060;-74
2022/03/19 00:36:58;;;;;;;17.10;7.95;;;2.60;99.90;;;;;;5069226;28;20048;-75
2022/03/19 00:39:24;;;;;;;13.85;6.72;;;2.50;99.90;;;;;;5069824;28;20104;-75
2022/03/19 00:41:49;;;;;;;14.35;6.85;;;2.50;99.90;;;;;;5051468;28;20076;-75
2022/03/19 00:44:15;;;;;;;15.95;6.95;;;2.40;99.90;;;;;;5051409;28;20477;-75
2022/03/19 00:46:41;;;;;;;13.75;7.20;;;2.40;99.90;;;;;;5069334;28;20127;-75
2022/03/19 00:49:06;;;;;;;14.23;6.20;;;2.30;99.90;;;;;;5069651;28;20020;-75
2022/03/19 00:51:36;;;;;;;9.10;5.90;;;2.30;99.90;;;;;;5051354;28;20031;-75
2022/03/19 00:54:02;;;;;;;12.50;5.82;;;2.20;99.90;;;;;;5051004;28;20393;-75
2022/03/19 00:56:27;;;;;;;14.07;5.60;;;2.20;99.90;;;;;;5069381;28;20031;-75
2022/03/19 00:58:53;;;;;;;14.52;5.78;;;2.10;99.90;;;;;;5069624;28;20036;-75
2022/03/19 01:01:19;;;;;;;14.75;6.03;;;2.20;99.90;;;;;;5069519;28;20024;-76
2022/03/19 01:03:44;;;;;;;9.65;4.90;;;2.10;99.90;;;;;;5050969;28;20031;-75
2022/03/19 01:06:10;;;;;;;12.75;5.43;;;2.10;99.90;;;;;;5069344;28;20129;-75
2022/03/19 01:08:36;;;;;;;14.43;5.75;;;2.10;99.90;;;;;;5051497;28;20013;-75
2022/03/19 01:11:02;;;;;;;10.57;5.40;;;2.10;99.90;;;;;;5069550;28;20123;-76
2022/03/19 01:13:27;;;;;;;6.97;4.07;;;2.10;99.90;;;;;;5069177;28;20506;-75
2022/03/19 01:15:53;;;;;;;14.07;5.78;;;2.10;99.90;;;;;;5069033;28;20057;-75
2022/03/19 01:18:18;;;;;;;10.30;4.30;;;2.10;99.90;;;;;;5069654;28;20099;-76
2022/03/19 01:20:44;;;;;;;11.52;5.30;;;2.10;99.90;;;;;;5069660;28;20558;-75
2022/03/19 01:23:09;;;;;;;12.63;6.10;;;2.00;99.90;;;;;;5069158;28;20033;-76
2022/03/19 01:25:35;;;;;;;9.88;4.03;;;2.00;99.90;;;;;;5069180;28;20112;-75
2022/03/19 01:28:00;;;;;;;11.25;5.25;;;2.00;99.90;;;;;;5069263;28;20028;-76
2022/03/19 01:30:26;;;;;;;14.10;5.18;;;2.00;99.90;;;;;;5072882;28;20032;-75
2022/03/19 01:32:52;;;;;;;13.07;4.35;;;2.10;99.90;;;;;;5072330;28;20103;-75
2022/03/19 01:35:19;;;;;;;9.23;5.20;;;2.20;99.90;;;;;;5054966;28;20485;-75
2022/03/19 01:37:46;;;;;;;6.95;3.97;;;2.20;99.90;;;;;;5072879;28;20195;-75
2022/03/19 01:40:13;;;;;;;11.40;4.78;;;2.30;99.90;;;;;;5072622;28;20048;-75
2022/03/19 01:42:46;;;;;;;16.88;5.03;;;2.30;99.90;;;;;;5054813;28;20039;-75
2022/03/19 01:45:15;;;;;;;11.40;4.35;;;2.30;99.90;;;;;;5060956;28;20480;-75
2022/03/19 01:47:41;;;;;;;12.95;4.13;;;2.30;99.90;;;;;;5072359;28;20025;-76
2022/03/19 01:50:07;;;;;;;12.55;4.70;;;2.30;99.90;;;;;;5072853;28;20025;-75
2022/03/19 01:52:33;;;;;;;5.65;3.47;;;2.30;99.90;;;;;;5054468;28;20056;-75
2022/03/19 01:54:59;;;;;;;11.55;4.97;;;2.30;99.90;;;;;;5067878;28;20055;-74
2022/03/19 01:57:28;;;;;;;13.45;4.63;;;2.30;99.90;;;;;;5054554;28;20445;-75
2022/03/19 01:59:56;;;;;;;11.52;5.05;;;2.30;99.90;;;;;;5069719;28;20774;-75
2022/03/19 02:02:24;;;;;;;16.70;4.10;;;2.30;99.90;;;;;;5048606;28;20532;-75
2022/03/19 02:04:50;;;;;;;11.57;4.40;;;2.30;99.90;;;;;;5054571;28;20016;-74
2022/03/19 02:07:16;;;;;;;9.88;3.95;;;2.30;99.90;;;;;;5062505;28;20078;-75
2022/03/19 02:09:41;;;;;;;11.07;4.75;;;2.30;99.90;;;;;;5065749;28;20127;-75
2022/03/19 02:12:07;;;;;;;12.13;4.68;;;2.30;99.90;;;;;;5062584;28;20409;-76
2022/03/19 02:14:34;;;;;;;11.63;3.97;;;2.30;99.90;;;;;;5072901;28;20439;-75
2022/03/19 02:17:02;;;;;;;14.88;4.63;;;2.30;99.90;;;;;;5132804;22;20057;-50
2022/03/19 02:19:28;;;;;;;12.80;4.18;;;2.20;99.90;;;;;;5051587;28;20503;-50
2022/03/19 02:21:54;;;;;;;11.52;3.42;;;2.20;99.90;;;;;;5051444;28;20037;-51
2022/03/19 02:27:04;;;;;;;9.32;4.00;;;2.10;99.90;;;;;;5052914;28;20036;-51
2022/03/19 02:29:30;;;;;;;9.23;4.05;;;2.10;99.90;;;;;;5052329;28;20028;-50
2022/03/19 02:32:02;;;;;;;11.63;4.07;;;2.10;99.90;;;;;;5052333;28;20117;-52
2022/03/19 02:34:28;;;;;;;12.88;4.53;;;2.10;99.90;;;;;;5051825;28;20087;-49
2022/03/19 02:36:54;;;;;;;13.60;4.95;;;2.00;99.90;;;;;;5051414;28;20025;-51
2022/03/19 02:39:30;;;;;;;12.68;4.65;;;1.90;99.90;;;;;;5051111;28;20116;-52
2022/03/19 02:41:58;;;;;;;12.05;4.90;;;1.90;99.90;;;;;;5051197;28;20033;-51
2022/03/19 02:44:24;;;;;;;10.30;4.25;;;1.90;99.90;;;;;;5051079;28;20382;-53
2022/03/19 02:46:53;;;;;;;12.48;3.90;;;1.90;99.90;;;;;;5050971;28;20013;-50
2022/03/19 02:49:19;;;;;;;12.00;4.70;;;1.80;99.90;;;;;;5050857;28;20033;-51
2022/03/19 02:51:47;;;;;;;9.57;5.13;;;1.80;99.90;;;;;;5050597;28;20101;-51
2022/03/19 02:54:15;;;;;;;14.05;4.43;;;1.80;99.90;;;;;;5051157;28;20146;-51
2022/03/19 02:56:42;;;;;;;11.10;4.65;;;1.70;99.90;;;;;;5050291;28;20071;-50
2022/03/19 02:59:20;;;;;;;11.32;4.80;;;1.60;99.90;;;;;;5050310;28;20028;-50
2022/03/19 03:01:47;;;;;;;10.32;4.10;;;1.60;99.90;;;;;;5050816;28;20063;-52
2022/03/19 03:04:12;;;;;;;9.75;5.43;;;1.60;99.90;;;;;;5050064;28;20554;-53
2022/03/19 03:06:40;;;;;;;10.55;3.90;;;1.50;99.90;;;;;;5050566;28;20033;-50
2022/03/19 03:09:07;;;;;;;9.75;4.15;;;1.50;99.90;;;;;;5050753;28;20021;-51
2022/03/19 03:11:34;;;;;;;9.93;3.97;;;1.50;99.90;;;;;;5051160;28;20079;-51
2022/03/19 03:14:00;;;;;;;8.70;5.20;;;1.40;99.90;;;;;;5050605;28;20082;-51
2022/03/19 03:16:29;;;;;;;11.30;4.70;;;1.40;99.90;;;;;;5050451;28;20021;-52
2022/03/19 03:19:01;;;;;;;11.18;4.10;;;1.40;99.90;;;;;;5050840;28;20036;-51
2022/03/19 03:21:30;;;;;;;13.55;5.05;;;1.40;99.90;;;;;;5049921;28;20032;-51
2022/03/19 03:23:55;;;;;;;13.40;5.75;;;1.30;99.90;;;;;;5050445;28;20028;-49
2022/03/19 03:26:22;;;;;;;10.98;3.90;;;1.40;99.90;;;;;;5050429;28;20401;-51
2022/03/19 03:28:48;;;;;;;8.60;3.90;;;1.40;99.90;;;;;;5050600;28;20142;-54
2022/03/19 03:31:13;;;;;;;9.35;4.30;;;1.30;99.90;;;;;;5051073;28;20485;-50
2022/03/19 03:33:39;;;;;;;13.60;4.18;;;1.30;99.90;;;;;;5049832;28;20021;-50
2022/03/19 03:36:05;;;;;;;10.10;4.57;;;1.30;99.90;;;;;;5049914;28;20504;-52
2022/03/19 03:38:31;;;;;;;7.07;3.90;;;1.20;99.90;;;;;;5050418;28;20158;-49
2022/03/19 03:40:57;;;;;;;9.52;4.65;;;1.20;99.90;;;;;;5050525;28;20507;-51
2022/03/19 03:43:22;;;;;;;11.60;4.45;;;1.20;99.90;;;;;;5049732;28;20033;-51
2022/03/19 03:45:49;;;;;;;13.95;4.70;;;1.10;99.90;;;;;;5050015;28;20029;-50
2022/03/19 03:48:14;;;;;;;12.20;5.07;;;1.10;99.90;;;;;;5049559;28;20611;-52
2022/03/19 03:50:40;;;;;;;12.15;4.22;;;1.10;99.90;;;;;;5049725;28;20032;-50
2022/03/19 03:53:07;;;;;;;8.32;4.25;;;1.10;99.90;;;;;;5049257;28;20507;-50
2022/03/19 03:55:34;;;;;;;11.70;4.40;;;1.10;99.90;;;;;;5049548;28;20025;-50
2022/03/19 03:58:01;;;;;;;10.65;5.30;;;1.00;99.90;;;;;;5049939;28;20083;-51
2022/03/19 04:00:27;;;;;;;8.77;4.28;;;0.90;99.90;;;;;;5049281;28;20520;-52
2022/03/19 04:02:53;;;;;;;9.45;5.03;;;0.90;99.90;;;;;;5049116;28;20032;-51
2022/03/19 04:05:19;;;;;;;12.30;5.05;;;0.80;99.90;;;;;;5049265;28;20393;-51
2022/03/19 04:07:45;;;;;;;10.90;4.22;;;0.90;99.90;;;;;;5049643;28;20397;-51
2022/03/19 04:10:12;;;;;;;9.45;4.25;;;0.80;99.90;;;;;;5049124;28;20029;-51
2022/03/19 04:12:37;;;;;;;10.95;4.28;;;0.80;99.90;;;;;;5069134;22;20049;-51
2022/03/19 04:15:05;;;;;;;11.40;4.28;;;0.80;99.90;;;;;;5034752;28;20025;-47
2022/03/19 04:17:31;;;;;;;10.63;3.90;;;0.70;99.90;;;;;;5042291;28;20068;-48
2022/03/19 04:19:56;;;;;;;9.23;4.10;;;0.70;99.90;;;;;;5029441;28;20026;-49
2022/03/19 04:22:22;;;;;;;11.02;4.80;;;0.80;99.90;;;;;;5029045;28;20025;-50
2022/03/19 04:24:47;;;;;;;9.45;4.88;;;0.80;99.90;;;;;;5029446;28;20026;-50
2022/03/19 04:27:14;;;;;;;8.27;3.92;;;0.70;99.90;;;;;;5029039;28;20029;-51
2022/03/19 04:29:43;;;;;;;13.23;4.20;;;0.70;99.90;;;;;;5029390;28;20033;-48
2022/03/19 04:32:09;;;;;;;11.00;4.63;;;0.70;99.90;;;;;;5029011;28;20493;-52
2022/03/19 04:34:35;;;;;;;13.60;4.63;;;0.60;99.90;;;;;;5028663;28;20572;-48
2022/03/19 04:37:00;;;;;;;12.02;4.72;;;0.70;99.90;;;;;;5029105;28;20037;-52
2022/03/19 04:39:26;;;;;;;11.75;4.50;;;0.60;99.90;;;;;;5029380;28;20026;-50
2022/03/19 04:41:52;;;;;;;14.63;4.35;;;0.60;99.90;;;;;;5028690;28;20520;-51
2022/03/19 04:44:17;;;;;;;8.50;4.03;;;0.60;99.90;;;;;;5028682;28;20029;-50
2022/03/19 04:46:43;;;;;;;11.23;4.43;;;0.60;99.90;;;;;;5028687;28;20485;-51
2022/03/19 04:49:09;;;;;;;12.15;4.65;;;0.60;99.90;;;;;;5028993;28;20022;-54
2022/03/19 04:51:38;;;;;;;13.93;4.38;;;0.60;99.90;;;;;;5028905;28;20490;-51
2022/03/19 04:54:04;;;;;;;16.08;4.35;;;0.60;99.90;;;;;;5028641;28;20056;-48
2022/03/19 04:56:31;;;;;;;11.70;4.07;;;0.60;99.90;;;;;;5028640;28;20018;-50
2022/03/19 04:58:58;;;;;;;9.25;4.50;;;0.60;99.90;;;;;;5028750;28;20056;-50
2022/03/19 05:01:29;;;;;;;9.63;4.55;;;0.60;99.90;;;;;;5027031;28;20025;-50
2022/03/19 05:03:54;;;;;;;7.95;4.25;;;0.50;99.90;;;;;;5030855;28;20026;-47
2022/03/19 05:06:21;;;;;;;7.60;3.38;;;0.50;99.90;;;;;;5032692;28;20388;-48
2022/03/19 05:11:12;;;;;;;11.13;4.35;;;0.50;99.90;;;;;;5032201;28;20021;-49
2022/03/19 05:11:33;;;;;;;10.13;3.47;;;0.40;99.90;;;;;;5013765;28;20045;-51
2022/03/19 05:13:58;;;;;;;10.20;3.55;;;0.40;99.90;;;;;;5032531;28;20036;-47
2022/03/19 05:16:24;;;;;;;14.93;3.60;;;0.50;99.90;;;;;;5032923;28;20026;-47
2022/03/19 05:18:49;;;;;;;12.40;4.15;;;0.50;99.90;;;;;;5032630;28;20018;-49
2022/03/19 05:21:15;;;;;;;8.25;3.20;;;0.50;99.90;;;;;;5033009;28;20116;-49
2022/03/19 05:23:42;;;;;;;7.93;3.22;;;0.60;99.90;;;;;;5032348;28;20021;-48
2022/03/19 05:26:08;;;;;;;12.20;3.40;;;0.60;99.90;;;;;;5029051;28;20025;-54
2022/03/19 05:28:34;;;;;;;10.00;3.50;;;0.60;99.90;;;;;;5032295;28;20025;-49
2022/03/19 05:31:01;;;;;;;7.90;2.78;;;0.60;99.90;;;;;;5033060;28;20025;-49
2022/03/19 05:36:11;;;;;;;8.63;2.97;;;0.60;99.90;;;;;;5032473;28;20037;-51
2022/03/19 05:38:37;;;;;;;12.98;4.32;;;0.70;99.90;;;;;;5032309;28;20022;-48
2022/03/19 05:41:02;;;;;;;7.63;3.83;;;0.70;99.90;;;;;;5032228;28;20083;-49
2022/03/19 05:43:28;;;;;;;9.25;3.78;;;0.70;99.90;;;;;;5032223;28;20021;-51
2022/03/19 05:45:53;;;;;;;10.75;3.78;;;0.80;99.90;;;;;;5032131;28;20021;-49
2022/03/19 05:48:19;;;;;;;6.35;3.33;;;0.80;99.90;;;;;;5032711;28;20506;-50
2022/03/19 05:50:45;;;;;;;12.32;4.43;;;0.80;99.90;;;;;;5032421;28;20477;-48
2022/03/19 05:53:10;;;;;;;12.32;4.88;;;0.90;99.90;;;;;;5032058;28;20022;-48
2022/03/19 05:55:36;;;;;;;8.05;3.90;;;1.00;99.90;;;;;;5031723;28;20108;-49
2022/03/19 05:58:02;;;;;;;10.82;3.92;;;1.00;99.90;;;;;;5031459;28;20037;-52
2022/03/19 06:00:27;;;;;;;16.55;4.57;;;1.00;99.90;;;;;;5031646;28;20674;-48
2022/03/19 06:02:53;;;;;;;12.15;4.25;;;1.10;99.90;;;;;;5031521;28;20022;-52
2022/03/19 06:05:18;;;;;;;8.50;4.38;;;1.20;99.90;;;;;;5031827;28;20026;-50
2022/03/19 06:07:44;;;;;;;6.43;3.67;;;1.20;99.90;;;;;;5031945;28;20401;-48
2022/03/19 06:10:10;;;;;;;11.07;3.83;;;1.20;99.90;;;;;;5032041;28;20025;-52
2022/03/19 06:12:35;;;;;;;8.15;3.78;;;1.30;99.90;;;;;;5029821;28;20040;-49
2022/03/19 06:15:01;;;;;;;10.93;3.90;;;1.30;99.90;;;;;;5030063;28;20051;-47
2022/03/19 06:17:27;;;;;;;13.52;3.97;;;1.30;99.90;;;;;;5031059;28;20449;-50
2022/03/19 06:19:54;;;;;;;14.30;4.07;;;1.40;99.90;;;;;;5031670;28;20110;-47
2022/03/19 06:22:20;;;;;;;11.88;4.10;;;1.50;99.90;;;;;;5030079;28;20112;-51
2022/03/19 06:24:46;;;;;;;10.68;4.03;;;1.60;99.90;;;;;;5031682;28;20541;-48
2022/03/19 06:27:12;;;;;;;11.80;3.92;;;1.60;99.90;;;;;;5029995;28;20120;-46
2022/03/19 06:29:37;;;;;;;10.95;4.60;;;1.70;99.90;;;;;;5031574;28;20425;-48
2022/03/19 06:32:03;;;;;;;13.20;4.57;;;1.80;99.90;;;;;;5030964;28;20033;-49
2022/03/19 06:34:30;;;;;;;9.95;4.35;;;1.80;99.90;;;;;;5031323;28;20175;-48
2022/03/19 06:39:41;;;;;;;7.85;3.75;;;1.80;99.90;;;;;;5031893;28;20043;-49
2022/03/19 06:42:06;;;;;;;9.90;3.60;;;1.80;99.90;;;;;;5030481;28;20437;-52
2022/03/19 06:44:33;;;;;;;13.35;4.68;;;1.90;99.90;;;;;;5031457;28;20466;-50
2022/03/19 06:46:59;;;;;;;10.82;3.95;;;1.90;99.90;;;;;;5031186;28;20018;-48
2022/03/19 06:49:26;;;;;;;9.60;3.38;;;2.00;99.90;;;;;;5031322;28;20087;-51
2022/03/19 06:51:51;;;;;;;6.95;3.50;;;2.00;99.90;;;;;;5030766;28;20025;-49
2022/03/19 06:54:17;;;;;;;13.27;4.63;;;2.10;99.90;;;;;;5030723;28;20025;-51
2022/03/19 06:56:42;;;;;;;16.60;4.70;;;2.10;99.90;;;;;;5030929;28;20041;-51
2022/03/19 06:59:08;;;;;;;9.55;4.10;;;2.20;99.90;;;;;;5031040;28;20516;-49
2022/03/19 07:01:36;;;;;;;8.60;4.00;;;2.30;99.90;;;;;;5030826;28;20022;-50
2022/03/19 07:04:03;;;;;;;10.95;4.50;;;2.40;99.90;;;;;;5030960;28;20052;-50
2022/03/19 07:06:29;;;;;;;7.88;4.00;;;2.50;99.90;;;;;;5030072;28;20438;-50
2022/03/19 07:08:54;;;;;;;14.57;4.10;;;2.60;99.90;;;;;;5030870;28;20069;-50
2022/03/19 07:11:20;;;;;;;9.25;3.53;;;2.60;99.90;;;;;;5030108;28;20103;-49
2022/03/19 07:13:45;;;;;;;9.05;3.80;;;2.80;99.90;;;;;;5030479;28;20091;-55
2022/03/19 07:16:12;;;;;;;6.78;3.20;;;2.80;99.90;;;;;;5030566;28;20032;-52
2022/03/19 07:18:37;;;;;;;11.23;3.83;;;2.90;99.90;;;;;;5030999;28;20036;-52
2022/03/19 07:21:03;;;;;;;15.93;4.07;;;2.90;99.90;;;;;;5030441;28;20030;-50
2022/03/19 07:23:29;;;;;;;18.42;4.90;;;3.00;99.90;;;;;;5030478;28;20413;-52
2022/03/19 07:25:59;;;;;;;9.68;3.88;;;3.10;99.90;;;;;;5029817;28;20104;-51
2022/03/19 07:28:26;;;;;;;8.95;3.97;;;3.10;99.90;;;;;;5030326;28;20700;-52
2022/03/19 07:30:51;;;;;;;16.50;4.60;;;3.20;99.90;;;;;;5030216;28;20043;-53
2022/03/19 07:33:17;;;;;;;5.90;3.17;;;3.20;99.90;;;;;;5030066;28;20033;-53
2022/03/19 07:35:43;;;;;;;6.40;3.33;;;3.30;99.90;;;;;;5030460;28;20445;-48
2022/03/19 07:38:10;;;;;;;11.73;3.85;;;3.50;99.90;;;;;;5029986;28;20502;-52
2022/03/19 07:43:23;;;;;;;7.00;3.33;;;3.60;99.90;;;;;;5030190;28;20132;-51
2022/03/19 07:45:49;;;;;;;10.50;3.50;;;3.80;99.90;;;;;;5029918;28;20037;-50
2022/03/19 07:48:15;;;;;;;11.85;3.95;;;3.90;99.90;;;;;;5029489;28;20041;-52
2022/03/19 07:50:41;;;;;;;6.57;2.83;;;4.00;99.90;;;;;;5029763;28;20025;-54
2022/03/19 07:53:07;;;;;;;9.63;2.78;;;4.20;99.90;;;;;;5029664;28;20030;-52
2022/03/19 07:55:34;;;;;;;6.15;2.22;;;4.40;99.90;;;;;;5029505;28;20029;-51
2022/03/19 07:58:07;;;;;;;7.28;3.20;;;4.60;99.90;;;;;;5059017;28;20556;-52
2022/03/19 08:00:32;;;;;;;8.02;3.03;;;4.70;99.90;;;;;;5066782;28;20023;-49
2022/03/19 08:02:58;;;;;;;9.15;2.58;;;4.80;99.90;;;;;;5058691;28;20399;-52
2022/03/19 08:05:24;;;;;;;7.40;2.85;;;4.90;99.90;;;;;;5047649;28;20025;-50
2022/03/19 08:07:51;;;;;;;8.70;3.22;;;5.00;99.90;;;;;;5066357;28;20033;-54
2022/03/19 08:10:18;;;;;;;6.85;2.05;;;5.20;99.90;;;;;;5066439;28;20059;-51
2022/03/19 08:12:45;;;;;;;5.55;2.33;;;5.40;99.90;;;;;;5065974;28;20025;-50
2022/03/19 08:15:11;;;;;;;5.60;2.55;;;5.60;99.90;;;;;;5065934;28;20025;-49
2022/03/19 08:17:37;;;;;;;6.70;2.08;;;5.70;99.90;;;;;;5066096;28;20025;-50
2022/03/19 08:20:04;;;;;;;6.68;3.15;;;5.80;99.90;;;;;;5066465;28;20073;-50
2022/03/19 08:22:30;;;;;;;5.45;2.38;;;5.90;99.90;;;;;;5065908;28;20021;-54
2022/03/19 08:24:55;;;;;;;15.10;2.90;;;6.10;99.90;;;;;;5066356;28;20186;-52
2022/03/19 08:27:24;;;;;;;5.25;1.88;;;6.30;99.90;;;;;;5066291;28;20032;-54
2022/03/19 08:29:50;;;;;;;7.50;2.47;;;6.50;99.90;;;;;;5066009;28;20028;-53
2022/03/19 08:32:16;;;;;;;9.48;2.90;;;6.60;99.90;;;;;;5065646;28;20438;-51
2022/03/19 08:34:44;;;;;;;4.43;1.92;;;6.70;99.90;;;;;;5063616;28;20028;-50
2022/03/19 08:37:10;;;;;;;4.20;1.83;;;6.80;99.90;;;;;;5065681;28;20158;-54
2022/03/19 08:42:19;;;;;;;5.93;2.03;;;7.00;99.90;;;;;;5065013;28;20067;-51
2022/03/19 08:44:45;;;;;;;5.22;2.20;;;7.00;99.90;;;;;;5062789;28;20052;-51
2022/03/19 08:47:11;;;;;;;6.18;2.22;;;7.20;99.90;;;;;;5065779;28;20091;-53
2022/03/19 08:49:36;;;;;;;10.20;2.47;;;7.50;99.90;;;;;;5046960;28;20455;-51
2022/03/19 08:52:02;;;;;;;8.35;1.77;;;7.80;99.90;;;;;;5045845;28;20033;-51
2022/03/19 08:54:28;;;;;;;5.47;2.17;;;7.90;99.90;;;;;;5045727;28;20037;-53
2022/03/19 08:56:54;;;;;;;5.75;1.88;;;7.90;99.90;;;;;;5054972;28;20036;-50
2022/03/19 08:59:20;;;;;;;6.95;1.90;;;8.10;99.90;;;;;;5063272;28;20112;-51
2022/03/19 09:01:47;;;;;;;6.63;2.35;;;8.20;99.90;;;;;;5045979;28;20021;-53
2022/03/19 09:04:14;;;;;;;5.50;2.42;;;8.30;99.90;;;;;;5046586;28;20025;-51
2022/03/19 09:06:41;;;;;;;5.07;1.67;;;8.40;99.90;;;;;;5065410;28;20108;-53
2022/03/19 09:09:07;;;;;;;9.35;1.83;;;8.40;99.90;;;;;;5052501;28;20017;-52
2022/03/19 09:11:34;;;;;;;8.27;2.15;;;8.40;99.90;;;;;;5047632;28;20099;-53
2022/03/19 09:14:02;;;;;;;4.03;1.77;;;8.50;99.90;;;;;;5033232;28;20411;-51
2022/03/19 09:16:28;;;;;;;5.13;1.88;;;8.70;99.90;;;;;;5032023;28;20048;-56
2022/03/19 09:18:54;;;;;;;6.32;2.45;;;8.80;99.90;;;;;;5048714;28;20419;-53
2022/03/19 09:21:19;;;;;;;4.68;1.83;;;8.80;99.90;;;;;;5051293;28;20025;-52
2022/03/19 09:23:45;;;;;;;4.32;2.00;;;8.80;99.90;;;;;;5035840;28;20105;-54
2022/03/19 09:26:12;;;;;;;4.55;1.90;;;8.60;99.90;;;;;;5032247;28;20025;-55
2022/03/19 09:28:38;;;;;;;6.35;2.20;;;8.70;99.90;;;;;;5031782;28;20495;-55
2022/03/19 09:31:03;;;;;;;6.30;2.10;;;8.80;99.90;;;;;;5032928;28;20024;-53
2022/03/19 09:33:29;;;;;;;8.27;2.10;;;9.00;99.90;;;;;;5031933;28;20068;-52
2022/03/19 09:35:57;;;;;;;5.70;1.92;;;9.10;99.90;;;;;;5033109;28;20527;-51
2022/03/19 09:38:23;;;;;;;7.28;1.58;;;9.20;99.90;;;;;;5039531;28;20025;-55
2022/03/19 09:40:49;;;;;;;4.63;1.55;;;9.20;99.90;;;;;;5034291;28;20479;-53
2022/03/19 09:43:14;;;;;;;7.30;1.88;;;9.20;99.90;;;;;;5051467;28;20479;-53
2022/03/19 09:45:40;;;;;;;6.53;2.15;;;9.20;99.90;;;;;;5049285;28;20028;-52
2022/03/19 09:48:06;;;;;;;5.75;1.63;;;9.40;99.90;;;;;;5031659;28;20045;-53
2022/03/19 09:50:34;;;;;;;6.82;2.13;;;9.40;99.90;;;;;;5043695;28;20479;-50
2022/03/19 09:53:01;;;;;;;5.15;1.60;;;9.40;99.90;;;;;;5051389;28;20032;-53
2022/03/19 09:55:29;;;;;;;5.13;2.05;;;9.30;99.90;;;;;;5039805;28;20026;-51
2022/03/19 09:57:56;;;;;;;4.78;2.17;;;9.40;99.90;;;;;;5031640;28;20776;-51
2022/03/19 10:00:24;;;;;;;6.50;1.33;;;9.50;99.90;;;;;;5032368;28;20030;-56
2022/03/19 10:03:01;;;;;;;5.25;1.80;;;9.50;99.90;;;;;;5030948;28;20040;-56
2022/03/19 10:11:01;;;;;;;4.22;1.10;;;9.70;99.90;;;;;;5049209;28;20430;-56
2022/03/19 10:13:27;;;;;;;4.78;1.13;;;9.80;99.90;;;;;;5043040;22;20096;-55
2022/03/19 10:15:53;;;;;;;4.72;1.88;;;9.90;99.90;;;;;;4992170;28;20488;-54
2022/03/19 10:18:29;;;;;;;6.25;1.85;;;10.00;99.90;;;;;;4992297;28;20489;-54
2022/03/19 10:20:55;;;;;;;5.20;1.30;;;10.10;99.90;;;;;;4992014;28;20026;-53
2022/03/19 10:23:50;;;;;;;4.63;1.20;;;10.00;99.90;;;;;;4991473;28;20149;-53
2022/03/19 10:26:34;;;;;;;4.55;1.55;;;10.00;99.90;;;;;;4994751;28;20670;-53
2022/03/19 10:29:05;;;;;;;6.85;1.27;;;10.10;99.90;;;;;;4990370;28;20030;-54
2022/03/19 10:31:40;;;;;;;3.97;1.20;;;10.10;99.90;;;;;;4991535;28;20101;-52
2022/03/19 10:34:07;;;;;;;3.38;1.08;;;10.00;99.90;;;;;;4990930;28;20754;-52
2022/03/19 10:36:41;;;;;;;6.40;1.83;;;9.90;99.90;;;;;;4991185;28;20049;-53
2022/03/19 10:39:28;;;;;;;2.95;1.48;;;9.90;99.90;;;;;;4991104;28;20041;-52
2022/03/19 10:41:57;;;;;;;;;;;9.90;99.90;;;;;;4991905;28;20018;-55
2022/03/19 10:44:25;;;;;;;3.65;1.23;;;9.90;99.90;;;;;;4991429;28;19956;-55
2022/03/19 10:46:52;;;;;;;6.13;0.98;;;10.00;99.90;;;;;;4991511;28;20033;-53
2022/03/19 10:49:21;;;;;;;2.80;1.17;;;10.00;99.90;;;;;;4990864;28;20026;-54
2022/03/19 10:51:49;;;;;;;4.60;1.60;;;9.70;99.90;;;;;;4991752;28;20070;-57
2022/03/19 10:54:16;;;;;;;2.67;1.02;;;9.60;99.90;;;;;;4987093;28;20086;-53
2022/03/19 10:56:43;;;;;;;1.02;0.88;;;9.70;99.90;;;;;;4990804;28;20045;-55
2022/03/19 10:59:09;;;;;;;2.97;1.58;;;9.80;99.90;;;;;;4981169;28;20109;-56
2022/03/19 11:01:36;;;;;;;2.92;1.00;;;9.80;99.90;;;;;;4975259;28;20101;-55
2022/03/19 11:04:04;;;;;;;2.97;1.10;;;9.90;99.90;;;;;;4990519;28;20029;-54
2022/03/19 11:06:36;;;;;;;3.03;0.98;;;10.00;99.90;;;;;;4990950;28;20673;-56
2022/03/19 11:09:14;;;;;;;2.40;1.13;;;10.00;99.90;;;;;;4990550;28;20076;-54
2022/03/19 11:11:40;;;;;;;4.78;1.20;;;10.10;99.90;;;;;;4991023;28;20261;-55
2022/03/19 11:14:08;;;;;;;1.98;1.15;;;10.00;99.90;;;;;;4990491;28;20038;-53
2022/03/19 11:16:37;;;;;;;3.08;1.08;;;10.00;99.90;;;;;;4989998;28;20030;-54
2022/03/19 11:19:04;;;;;;;2.47;0.93;;;10.10;99.90;;;;;;4991043;28;20515;-53
2022/03/19 11:21:33;;;;;;;3.08;1.08;;;10.10;99.90;;;;;;4990160;28;20030;-51
2022/03/19 11:24:23;;;;;;;2.17;0.90;;;10.10;99.90;;;;;;4990196;28;20041;-53
2022/03/19 11:26:51;;;;;;;1.02;0.82;;;10.10;99.90;;;;;;4988416;28;20560;-52
2022/03/19 11:29:18;;;;;;;2.97;1.25;;;10.10;99.90;;;;;;4990745;28;20038;-55
2022/03/19 11:32:01;;;;;;;3.22;1.30;;;10.10;99.90;;;;;;4990944;28;20030;-54
2022/03/19 11:34:45;;;;;;;2.95;1.02;;;10.10;99.90;;;;;;4990542;28;20121;-53
2022/03/19 11:37:11;;;;;;;4.88;1.35;;;10.10;99.90;;;;;;4990195;28;20057;-53
2022/03/19 11:39:37;;;;;;;3.55;0.80;;;10.20;99.90;;;;;;4990496;28;20793;-57
2022/03/19 11:42:07;;;;;;;2.15;1.00;;;10.20;99.90;;;;;;4990230;28;20473;-55
2022/03/19 11:44:46;;;;;;;0.68;0.50;;;10.30;99.90;;;;;;4989106;28;20018;-57
2022/03/19 11:47:16;;;;;;;2.28;1.13;;;10.20;99.90;;;;;;4991298;28;20109;-52
2022/03/19 11:49:46;;;;;;;3.05;1.08;;;10.20;99.90;;;;;;4990555;28;20038;-52
2022/03/19 11:52:16;;;;;;;2.92;1.00;;;10.20;99.90;;;;;;4989744;28;20037;-55
2022/03/19 11:55:04;;;;;;;2.22;0.90;;;10.20;99.90;;;;;;4990107;28;20057;-52
2022/03/19 11:57:45;;;;;;;1.05;0.90;;;10.10;99.90;;;;;;4989966;28;20085;-56
2022/03/19 12:00:14;;;;;;;2.50;1.00;;;10.10;99.90;;;;;;4989732;28;20032;-53
2022/03/19 12:03:02;;;;;;;2.97;1.17;;;10.10;99.90;;;;;;4989493;28;20038;-53
2022/03/19 12:05:28;;;;;;;1.08;0.90;;;10.10;99.90;;;;;;4990471;28;20018;-53
2022/03/19 12:07:57;;;;;;;1.23;0.98;;;10.30;99.90;;;;;;4988757;28;20113;-56
2022/03/19 12:10:27;;;;;;;1.40;0.90;;;10.30;99.90;;;;;;4990386;28;20403;-56
2022/03/19 12:12:57;;;;;;;1.95;0.82;;;10.30;99.90;;;;;;4987536;28;20088;-52
2022/03/19 12:15:42;;;;;;;3.70;1.17;;;10.20;99.90;;;;;;4990007;28;20038;-55
2022/03/19 12:18:29;;;;;;;3.60;1.30;;;10.10;99.90;;;;;;4986113;28;20042;-54
2022/03/19 12:21:00;;;;;;;2.85;1.17;;;10.10;99.90;;;;;;4989768;28;20485;-53
2022/03/19 12:23:29;;;;;;;3.28;1.45;;;10.10;99.90;;;;;;4989871;28;20034;-54
2022/03/19 12:26:05;;;;;;;2.97;1.13;;;10.10;99.90;;;;;;4989777;28;20221;-53
2022/03/19 12:28:31;;;;;;;3.30;1.23;;;10.10;99.90;;;;;;4989580;28;20329;-55
2022/03/19 12:31:08;;;;;;;3.25;1.38;;;10.10;99.90;;;;;;4989644;28;20038;-51
2022/03/19 12:33:35;;;;;;;4.30;1.42;;;10.10;99.90;;;;;;4989427;28;20105;-53
2022/03/19 12:36:14;;;;;;;2.97;1.35;;;10.10;99.90;;;;;;4988882;28;20034;-53
2022/03/19 12:38:40;;;;;;;3.25;1.10;;;10.10;99.90;;;;;;4989606;28;20018;-55
2022/03/19 12:41:24;;;;;;;2.75;1.30;;;10.00;99.90;;;;;;4989651;28;20117;-53
2022/03/19 12:43:50;;;;;;;3.85;1.50;;;10.00;99.90;;;;;;4991498;28;20596;-53
2022/03/19 12:46:26;;;;;;;3.53;1.77;;;9.80;99.90;;;;;;4993803;28;20146;-56
2022/03/19 12:49:07;;;;;;;2.50;1.17;;;9.90;99.90;;;;;;4993988;28;20557;-53
2022/03/19 12:51:35;;;;;;;3.15;1.88;;;9.90;99.90;;;;;;4993527;28;20056;-53
2022/03/19 12:54:18;;;;;;;1.73;1.13;;;9.80;99.90;;;;;;4993236;28;20049;-55
2022/03/19 12:56:44;;;;;;;5.28;1.95;;;9.90;99.90;;;;;;4993336;28;20025;-52
2022/03/19 12:59:18;;;;;;;2.95;1.95;;;9.80;99.90;;;;;;4992889;28;20477;-53
2022/03/19 13:01:44;;;;;;;2.25;1.60;;;9.70;99.90;;;;;;4993461;28;20145;-51
2022/03/19 13:04:09;;;;;;;3.38;1.90;;;9.70;99.90;;;;;;4992997;28;20093;-54
2022/03/19 13:06:41;;;;;;;3.83;1.48;;;9.80;99.90;;;;;;4992692;28;20593;-54
2022/03/19 13:09:08;;;;;;;3.22;1.88;;;9.90;99.90;;;;;;4993140;28;20037;-53
2022/03/19 13:11:44;;;;;;;2.22;1.70;;;10.10;99.90;;;;;;4992997;28;20030;-53